Time;durP1;ratioP1;P1;durP2;ratioP2;P2;SDS_P1;SDS_P2;PMS_P1;PMS_P2;Temp;Humidity;BMP_temperature;BMP_pressure;BME280_temperature;BME280_humidity;BME280_pressure;Samples;Min_cycle;Max_cycle;Signal;HPM_P1;HPM_P2
2024/04/05 00:00:07;;;;;;;3.27;1.10;;;;;;;;;;5018442;28;20202;-79
2024/04/05 00:02:33;;;;;;;1.60;1.00;;;;;;;;;;5018663;28;20268;-80
2024/04/05 00:05:00;;;;;;;5.43;1.50;;;;;;;;;;5019404;28;20201;-80
2024/04/05 00:07:26;;;;;;;2.10;1.10;;;;;;;;;;5019411;28;20182;-80
2024/04/05 00:09:52;;;;;;;1.10;1.00;;;;;;;;;;5001596;28;20642;-81
2024/04/05 00:12:18;;;;;;;1.00;1.00;;;;;;;;;;5019673;28;20187;-81
2024/04/05 00:14:44;;;;;;;1.67;1.00;;;;;;;;;;5017270;28;20675;-81
2024/04/05 00:17:10;;;;;;;1.60;1.10;;;;;;;;;;5019716;28;20211;-81
2024/04/05 00:19:36;;;;;;;1.10;1.00;;;;;;;;;;5018839;28;20374;-79
2024/04/05 00:22:02;;;;;;;2.23;0.97;;;;;;;;;;5019281;28;20182;-80
2024/04/05 00:24:28;;;;;;;1.17;0.93;;;;;;;;;;5017622;28;20681;-79
2024/04/05 00:26:54;;;;;;;1.17;1.07;;;;;;;;;;5016154;28;20182;-80
2024/04/05 00:29:20;;;;;;;3.30;1.00;;;;;;;;;;5016548;28;20257;-79
2024/04/05 00:31:46;;;;;;;1.00;0.90;;;;;;;;;;5016575;28;20684;-80
2024/04/05 00:34:12;;;;;;;1.70;1.17;;;;;;;;;;5016838;28;20198;-80
2024/04/05 00:36:38;;;;;;;4.30;1.30;;;;;;;;;;5020476;28;20667;-79
2024/04/05 00:39:05;;;;;;;1.20;1.10;;;;;;;;;;5019764;28;20218;-80
2024/04/05 00:41:31;;;;;;;2.67;1.37;;;;;;;;;;5018220;28;20201;-80
2024/04/05 00:43:57;;;;;;;3.13;1.23;;;;;;;;;;5018491;28;20677;-79
2024/04/05 00:46:24;;;;;;;1.80;1.40;;;;;;;;;;5018408;28;20193;-81
2024/04/05 00:48:50;;;;;;;3.30;1.10;;;;;;;;;;5019264;28;20179;-79
2024/04/05 00:51:17;;;;;;;1.80;1.00;;;;;;;;;;5019635;28;20193;-80
2024/04/05 00:53:43;;;;;;;4.10;1.00;;;;;;;;;;5019162;28;20214;-80
2024/04/05 00:56:09;;;;;;;1.97;1.00;;;;;;;;;;5018434;28;20226;-80
2024/04/05 00:58:35;;;;;;;1.00;0.90;;;;;;;;;;5018017;28;20193;-81
2024/04/05 01:01:01;;;;;;;1.97;1.00;;;;;;;;;;5018460;28;20220;-81
2024/04/05 01:03:27;;;;;;;1.23;1.10;;;;;;;;;;5017880;28;20645;-80
2024/04/05 01:05:54;;;;;;;2.13;1.10;;;;;;;;;;5018621;28;20218;-81
2024/04/05 01:08:20;;;;;;;2.07;1.10;;;;;;;;;;5017719;28;20190;-80
2024/04/05 01:10:46;;;;;;;3.03;1.27;;;;;;;;;;5019010;28;20191;-81
2024/04/05 01:13:13;;;;;;;3.90;1.20;;;;;;;;;;5018222;28;20192;-82
2024/04/05 01:15:39;;;;;;;2.80;1.20;;;;;;;;;;5018047;28;20241;-81
2024/04/05 01:18:05;;;;;;;2.40;1.23;;;;;;;;;;5018188;28;20222;-82
2024/04/05 01:20:32;;;;;;;1.60;1.10;;;;;;;;;;5018050;28;20203;-82
2024/04/05 01:23:02;;;;;;;1.43;1.27;;;;;;;;;;5018054;28;20186;-80
2024/04/05 01:25:28;;;;;;;2.77;1.30;;;;;;;;;;5017759;28;20594;-80
2024/04/05 01:27:55;;;;;;;1.67;1.10;;;;;;;;;;5017925;28;20297;-80
2024/04/05 01:30:21;;;;;;;1.23;1.10;;;;;;;;;;5017820;28;20180;-80
2024/04/05 01:32:53;;;;;;;1.53;1.27;;;;;;;;;;5018641;28;20203;-82
2024/04/05 01:35:19;;;;;;;1.50;1.07;;;;;;;;;;5016394;28;20678;-80
2024/04/05 01:37:45;;;;;;;1.57;1.20;;;;;;;;;;5016582;28;20680;-82
2024/04/05 01:40:11;;;;;;;3.20;1.30;;;;;;;;;;5017400;28;20243;-80
2024/04/05 01:42:37;;;;;;;1.97;1.30;;;;;;;;;;5017574;28;20182;-81
2024/04/05 01:45:04;;;;;;;2.80;1.70;;;;;;;;;;4999232;28;20224;-81
2024/04/05 01:47:30;;;;;;;2.50;1.20;;;;;;;;;;5016966;28;20707;-80
2024/04/05 01:49:56;;;;;;;1.80;1.23;;;;;;;;;;5016834;28;20251;-81
2024/04/05 01:52:22;;;;;;;3.13;1.60;;;;;;;;;;5016876;28;20203;-81
2024/04/05 01:54:49;;;;;;;3.37;1.70;;;;;;;;;;5017013;28;20272;-81
2024/04/05 01:57:15;;;;;;;1.77;1.47;;;;;;;;;;5016672;28;20203;-81
2024/04/05 01:59:46;;;;;;;4.33;2.00;;;;;;;;;;5016712;28;20220;-80
2024/04/05 02:02:12;;;;;;;2.97;1.80;;;;;;;;;;5017279;28;20544;-81
2024/04/05 02:04:38;;;;;;;1.47;1.30;;;;;;;;;;5017271;28;20648;-80
2024/04/05 02:07:04;;;;;;;2.67;1.40;;;;;;;;;;5015893;28;20233;-80
2024/04/05 02:09:30;;;;;;;1.90;1.33;;;;;;;;;;5016553;28;20271;-81
2024/04/05 02:11:58;;;;;;;3.27;1.63;;;;;;;;;;5017429;28;20222;-81
2024/04/05 02:14:25;;;;;;;2.07;1.70;;;;;;;;;;5017105;28;20253;-81
2024/04/05 02:16:51;;;;;;;6.23;1.90;;;;;;;;;;5016960;28;20179;-82
2024/04/05 02:19:17;;;;;;;3.40;2.07;;;;;;;;;;5016984;28;20189;-82
2024/04/05 02:21:43;;;;;;;2.50;1.77;;;;;;;;;;5017408;28;20532;-82
2024/04/05 02:24:09;;;;;;;3.30;1.43;;;;;;;;;;5013938;28;20217;-80
2024/04/05 02:26:35;;;;;;;2.83;1.47;;;;;;;;;;5014217;28;20184;-80
2024/04/05 02:29:01;;;;;;;2.87;2.10;;;;;;;;;;4996685;28;20650;-80
2024/04/05 02:31:27;;;;;;;3.27;1.60;;;;;;;;;;4997045;28;20190;-79
2024/04/05 02:33:53;;;;;;;4.43;1.73;;;;;;;;;;5014615;28;20679;-81
2024/04/05 02:36:19;;;;;;;3.20;1.60;;;;;;;;;;5014215;28;20196;-80
2024/04/05 02:38:45;;;;;;;3.00;1.63;;;;;;;;;;5013814;28;20208;-80
2024/04/05 02:41:11;;;;;;;2.63;1.77;;;;;;;;;;5014639;28;20210;-80
2024/04/05 02:43:38;;;;;;;2.60;1.70;;;;;;;;;;5015109;28;20207;-81
2024/04/05 02:46:04;;;;;;;2.00;1.67;;;;;;;;;;5016439;28;20203;-81
2024/04/05 02:48:30;;;;;;;2.23;1.53;;;;;;;;;;5016751;28;20276;-81
2024/04/05 02:50:56;;;;;;;2.30;1.70;;;;;;;;;;5016336;28;20179;-81
2024/04/05 02:53:24;;;;;;;2.13;1.47;;;;;;;;;;5016285;28;20215;-81
2024/04/05 02:55:50;;;;;;;5.53;1.53;;;;;;;;;;5016305;28;20542;-81
2024/04/05 02:58:16;;;;;;;2.13;1.53;;;;;;;;;;5016587;28;20221;-81
2024/04/05 03:00:42;;;;;;;1.63;1.47;;;;;;;;;;5016272;28;20544;-81
2024/04/05 03:03:09;;;;;;;3.10;2.00;;;;;;;;;;5016344;28;20183;-81
2024/04/05 03:05:35;;;;;;;1.57;1.47;;;;;;;;;;5016106;28;20706;-81
2024/04/05 03:08:01;;;;;;;1.80;1.30;;;;;;;;;;5016179;28;20182;-82
2024/04/05 03:10:27;;;;;;;1.90;1.40;;;;;;;;;;5016202;28;20252;-81
2024/04/05 03:12:54;;;;;;;2.17;1.50;;;;;;;;;;5016246;28;20237;-81
2024/04/05 03:15:20;;;;;;;1.83;1.57;;;;;;;;;;5015239;28;20709;-80
2024/04/05 03:17:46;;;;;;;3.20;1.97;;;;;;;;;;5014273;28;20240;-80
2024/04/05 03:20:12;;;;;;;5.13;2.50;;;;;;;;;;5014210;28;20217;-81
2024/04/05 03:22:39;;;;;;;4.23;2.07;;;;;;;;;;5014033;28;20187;-80
2024/04/05 03:25:05;;;;;;;2.23;1.70;;;;;;;;;;5014648;28;20209;-80
2024/04/05 03:27:31;;;;;;;4.00;1.87;;;;;;;;;;5014272;28;20174;-81
2024/04/05 03:29:57;;;;;;;2.23;1.70;;;;;;;;;;4997586;28;20194;-80
2024/04/05 03:32:23;;;;;;;4.03;1.83;;;;;;;;;;4981087;28;20350;-80
2024/04/05 03:34:49;;;;;;;4.73;2.00;;;;;;;;;;5014638;28;20204;-80
2024/04/05 03:37:15;;;;;;;3.20;2.30;;;;;;;;;;4996961;28;20243;-81
2024/04/05 03:39:41;;;;;;;3.20;2.20;;;;;;;;;;5015132;28;20299;-80
2024/04/05 03:42:07;;;;;;;2.57;1.80;;;;;;;;;;5014596;28;20216;-81
2024/04/05 03:44:33;;;;;;;3.80;1.90;;;;;;;;;;5015910;28;20203;-81
2024/04/05 03:47:00;;;;;;;2.43;1.70;;;;;;;;;;5016313;28;20180;-80
2024/04/05 03:49:28;;;;;;;2.90;1.63;;;;;;;;;;5018880;28;20726;-81
2024/04/05 03:51:55;;;;;;;2.00;1.70;;;;;;;;;;5019591;28;20202;-82
2024/04/05 03:54:21;;;;;;;2.40;1.70;;;;;;;;;;5019669;28;20607;-82
2024/04/05 03:56:47;;;;;;;2.23;1.50;;;;;;;;;;5020363;28;20661;-81
2024/04/05 03:59:13;;;;;;;2.83;1.67;;;;;;;;;;5020854;28;20197;-81
2024/04/05 04:01:40;;;;;;;1.70;1.60;;;;;;;;;;5001877;28;20180;-81
2024/04/05 04:04:06;;;;;;;1.90;1.63;;;;;;;;;;5019470;28;20234;-81
2024/04/05 04:06:32;;;;;;;2.67;1.60;;;;;;;;;;5019402;28;20666;-81
2024/04/05 04:08:58;;;;;;;2.33;1.57;;;;;;;;;;5019358;28;20191;-81
2024/04/05 04:11:24;;;;;;;4.70;1.80;;;;;;;;;;5019918;28;20194;-81
2024/04/05 04:13:49;;;;;;;2.23;1.90;;;;;;;;;;5034753;28;20202;-80
2024/04/05 04:16:16;;;;;;;3.53;1.80;;;;;;;;;;5033819;28;20168;-80
2024/04/05 04:18:46;;;;;;;4.80;1.73;;;;;;;;;;5022050;28;20184;-81
2024/04/05 04:21:12;;;;;;;1.93;1.60;;;;;;;;;;5018469;28;20222;-80
2024/04/05 04:23:38;;;;;;;3.60;1.67;;;;;;;;;;5018724;28;20199;-80
2024/04/05 04:26:05;;;;;;;1.60;1.50;;;;;;;;;;5019102;28;20225;-80
2024/04/05 04:28:32;;;;;;;1.70;1.43;;;;;;;;;;5018679;28;20183;-81
2024/04/05 04:30:59;;;;;;;2.47;1.63;;;;;;;;;;5018351;28;20204;-80
2024/04/05 04:33:25;;;;;;;3.93;1.70;;;;;;;;;;5018546;28;20207;-80
2024/04/05 04:35:51;;;;;;;2.50;1.40;;;;;;;;;;5019020;28;20249;-81
2024/04/05 04:38:18;;;;;;;2.10;1.63;;;;;;;;;;5018323;28;20205;-81
2024/04/05 04:40:44;;;;;;;3.00;1.93;;;;;;;;;;5017835;28;20213;-81
2024/04/05 04:43:10;;;;;;;4.40;1.97;;;;;;;;;;5016779;28;20181;-80
2024/04/05 04:45:36;;;;;;;3.83;2.30;;;;;;;;;;5015755;28;20190;-80
2024/04/05 04:48:02;;;;;;;2.70;2.10;;;;;;;;;;5016938;28;20193;-81
2024/04/05 04:50:28;;;;;;;3.47;2.30;;;;;;;;;;5018165;28;20642;-81
2024/04/05 04:52:54;;;;;;;2.83;2.10;;;;;;;;;;5017622;28;20189;-81
2024/04/05 04:55:20;;;;;;;2.93;2.00;;;;;;;;;;5018202;28;20182;-80
2024/04/05 04:57:46;;;;;;;3.87;1.93;;;;;;;;;;5017581;28;20196;-81
2024/04/05 05:00:14;;;;;;;3.60;1.87;;;;;;;;;;5017095;28;20308;-81
2024/04/05 05:02:43;;;;;;;2.93;2.10;;;;;;;;;;5000263;28;20240;-81
2024/04/05 05:05:11;;;;;;;2.27;2.00;;;;;;;;;;5017835;28;20198;-81
2024/04/05 05:07:37;;;;;;;2.37;2.10;;;;;;;;;;5018069;28;20185;-81
2024/04/05 05:10:06;;;;;;;3.10;1.93;;;;;;;;;;5017921;28;20224;-81
2024/04/05 05:12:32;;;;;;;2.60;1.93;;;;;;;;;;5000774;28;20317;-81
2024/04/05 05:14:58;;;;;;;3.40;2.03;;;;;;;;;;5000683;28;20206;-81
2024/04/05 05:17:24;;;;;;;3.53;2.10;;;;;;;;;;5018805;28;20269;-81
2024/04/05 05:19:50;;;;;;;3.20;2.10;;;;;;;;;;5017645;28;20206;-80
2024/04/05 05:22:16;;;;;;;3.33;2.03;;;;;;;;;;5018296;28;20865;-81
2024/04/05 05:24:42;;;;;;;4.80;2.30;;;;;;;;;;5017949;28;20209;-81
2024/04/05 05:27:08;;;;;;;2.90;2.30;;;;;;;;;;5018203;28;20186;-81
2024/04/05 05:29:34;;;;;;;4.07;2.53;;;;;;;;;;5017539;28;20252;-81
2024/04/05 05:32:00;;;;;;;3.37;2.00;;;;;;;;;;5000073;28;20179;-81
2024/04/05 05:34:26;;;;;;;4.10;1.93;;;;;;;;;;5018014;28;20213;-81
2024/04/05 05:36:52;;;;;;;4.30;2.57;;;;;;;;;;4999714;28;20201;-81
2024/04/05 05:39:19;;;;;;;3.43;2.40;;;;;;;;;;5017529;28;20221;-82
2024/04/05 05:41:45;;;;;;;3.77;2.67;;;;;;;;;;5017854;28;20209;-81
2024/04/05 05:44:11;;;;;;;5.10;2.70;;;;;;;;;;5017562;28;20209;-81
2024/04/05 05:46:37;;;;;;;7.27;3.07;;;;;;;;;;5018986;28;20538;-81
2024/04/05 05:49:03;;;;;;;2.73;2.23;;;;;;;;;;5018305;28;20201;-81
2024/04/05 05:51:29;;;;;;;5.00;2.93;;;;;;;;;;5017945;28;20186;-82
2024/04/05 05:53:55;;;;;;;5.10;2.67;;;;;;;;;;5018081;28;20300;-82
2024/04/05 05:56:21;;;;;;;3.37;2.77;;;;;;;;;;5017629;28;20272;-82
2024/04/05 05:58:48;;;;;;;3.13;2.70;;;;;;;;;;5017718;28;20190;-81
2024/04/05 06:01:14;;;;;;;4.83;3.03;;;;;;;;;;5017184;28;20520;-82
2024/04/05 06:03:40;;;;;;;5.07;2.87;;;;;;;;;;5017292;28;20201;-82
2024/04/05 06:06:07;;;;;;;4.93;3.00;;;;;;;;;;5000165;28;20190;-82
2024/04/05 06:08:34;;;;;;;5.13;3.03;;;;;;;;;;5017803;28;20683;-81
2024/04/05 06:11:00;;;;;;;5.00;3.03;;;;;;;;;;5017102;28;20205;-82
2024/04/05 06:13:26;;;;;;;3.93;2.87;;;;;;;;;;5017231;28;20197;-82
2024/04/05 06:15:53;;;;;;;6.07;3.03;;;;;;;;;;5017343;28;20204;-82
2024/04/05 06:18:19;;;;;;;4.37;2.87;;;;;;;;;;5016522;28;20181;-81
2024/04/05 06:20:51;;;;;;;3.83;2.80;;;;;;;;;;5013919;28;20736;-80
2024/04/05 06:23:17;;;;;;;4.17;2.70;;;;;;;;;;5014565;28;20217;-81
2024/04/05 06:25:50;;;;;;;4.67;2.70;;;;;;;;;;5014867;28;20213;-80
2024/04/05 06:28:16;;;;;;;4.00;2.60;;;;;;;;;;5014373;28;20187;-81
2024/04/05 06:30:42;;;;;;;3.60;2.53;;;;;;;;;;5014760;28;20182;-81
2024/04/05 06:33:08;;;;;;;4.53;2.67;;;;;;;;;;5015070;28;20501;-81
2024/04/05 06:35:34;;;;;;;5.33;2.60;;;;;;;;;;5015053;28;20190;-80
2024/04/05 06:38:00;;;;;;;2.33;2.13;;;;;;;;;;5015555;28;20214;-80
2024/04/05 06:40:27;;;;;;;6.13;2.70;;;;;;;;;;4998414;28;20226;-82
2024/04/05 06:42:52;;;;;;;5.27;2.97;;;;;;;;;;5016327;28;20193;-81
2024/04/05 06:45:18;;;;;;;5.77;2.70;;;;;;;;;;5015662;28;20278;-81
2024/04/05 06:47:44;;;;;;;4.07;2.70;;;;;;;;;;5016525;28;20231;-81
2024/04/05 06:50:11;;;;;;;2.37;2.13;;;;;;;;;;5016964;28;20198;-82
2024/04/05 06:52:37;;;;;;;3.43;2.20;;;;;;;;;;5016698;28;20664;-82
2024/04/05 06:55:03;;;;;;;3.23;2.20;;;;;;;;;;5015945;28;20215;-81
2024/04/05 06:57:29;;;;;;;3.03;1.70;;;;;;;;;;5017209;28;20614;-82
2024/04/05 06:59:55;;;;;;;3.23;1.57;;;;;;;;;;5016543;28;20213;-82
2024/04/05 07:02:22;;;;;;;4.37;2.00;;;;;;;;;;5017763;28;20222;-80
2024/04/05 07:04:48;;;;;;;2.50;1.53;;;;;;;;;;5018624;28;20198;-80
2024/04/05 07:07:14;;;;;;;5.47;1.80;;;;;;;;;;5018037;28;20238;-80
2024/04/05 07:09:40;;;;;;;2.60;1.67;;;;;;;;;;5016904;28;20653;-80
2024/04/05 07:12:07;;;;;;;1.97;1.57;;;;;;;;;;5016416;28;20190;-80
2024/04/05 07:14:33;;;;;;;3.37;1.23;;;;;;;;;;5016210;28;20203;-79
2024/04/05 07:16:59;;;;;;;2.97;1.50;;;;;;;;;;5016223;28;20200;-80
2024/04/05 07:19:26;;;;;;;1.83;1.30;;;;;;;;;;5016134;28;20208;-80
2024/04/05 07:21:52;;;;;;;1.73;1.37;;;;;;;;;;5016708;28;20256;-80
2024/04/05 07:24:21;;;;;;;2.37;1.23;;;;;;;;;;5019424;28;20694;-82
2024/04/05 07:26:47;;;;;;;2.47;1.20;;;;;;;;;;5020830;28;20299;-82
2024/04/05 07:29:13;;;;;;;1.50;1.10;;;;;;;;;;5020741;28;20183;-81
2024/04/05 07:31:39;;;;;;;3.07;1.17;;;;;;;;;;5019696;28;20714;-79
2024/04/05 07:34:05;;;;;;;1.93;1.00;;;;;;;;;;5019812;28;20301;-80
2024/04/05 07:36:32;;;;;;;1.50;1.00;;;;;;;;;;5002531;28;20198;-79
2024/04/05 07:38:58;;;;;;;1.87;1.40;;;;;;;;;;5019835;28;20205;-78
2024/04/05 07:41:24;;;;;;;1.23;1.10;;;;;;;;;;5020703;28;20300;-82
2024/04/05 07:43:50;;;;;;;4.00;1.13;;;;;;;;;;5021391;28;20336;-81
2024/04/05 07:46:17;;;;;;;3.27;1.27;;;;;;;;;;5020124;28;20712;-78
2024/04/05 07:48:43;;;;;;;2.80;1.10;;;;;;;;;;5019996;28;20711;-78
2024/04/05 07:51:10;;;;;;;1.10;0.90;;;;;;;;;;5019706;28;20191;-78
2024/04/05 07:53:36;;;;;;;0.90;0.70;;;;;;;;;;5020334;28;20205;-79
2024/04/05 07:56:05;;;;;;;3.07;1.30;;;;;;;;;;5020062;28;20185;-78
2024/04/05 07:58:31;;;;;;;1.30;1.13;;;;;;;;;;5020384;28;20183;-79
2024/04/05 08:00:58;;;;;;;1.40;1.20;;;;;;;;;;5039424;22;20211;-86
2024/04/05 08:03:26;;;;;;;2.13;1.20;;;;;;;;;;5024354;28;20179;-85
2024/04/05 08:06:00;;;;;;;3.03;1.20;;;;;;;;;;5024078;28;20164;-86
2024/04/05 08:08:26;;;;;;;1.70;1.07;;;;;;;;;;5009923;28;20192;-85
2024/04/05 08:11:09;;;;;;;4.37;1.20;;;;;;;;;;5000943;28;20288;-87
2024/04/05 08:13:42;;;;;;;1.10;0.90;;;;;;;;;;5000781;28;20178;-87
2024/04/05 08:16:12;;;;;;;2.00;1.13;;;;;;;;;;5001829;28;20206;-86
2024/04/05 08:18:38;;;;;;;1.60;0.90;;;;;;;;;;5000688;28;20232;-85
2024/04/05 08:21:08;;;;;;;2.67;1.13;;;;;;;;;;4999786;28;20254;-87
2024/04/05 08:23:45;;;;;;;1.37;1.03;;;;;;;;;;5017962;28;20181;-85
2024/04/05 08:26:14;;;;;;;2.67;1.57;;;;;;;;;;5018720;28;20179;-88
2024/04/05 08:28:44;;;;;;;5.97;4.37;;;;;;;;;;5000397;28;20570;-85
2024/04/05 08:31:12;;;;;;;2.13;1.70;;;;;;;;;;4983167;28;20212;-86
2024/04/05 08:33:55;;;;;;;2.50;1.33;;;;;;;;;;4999727;28;20204;-87
2024/04/05 08:36:24;;;;;;;1.70;1.07;;;;;;;;;;4998302;28;20220;-87
2024/04/05 08:39:00;;;;;;;2.63;1.07;;;;;;;;;;5000431;28;20189;-86
2024/04/05 08:41:29;;;;;;;4.37;1.07;;;;;;;;;;5006078;23;20600;-68
2024/04/05 08:43:58;;;;;;;1.87;1.27;;;;;;;;;;5015618;28;20212;-68
2024/04/05 08:46:25;;;;;;;3.88;1.10;;;;;;;;;;5015833;28;20564;-68
2024/04/05 08:48:51;;;;;;;1.98;1.00;;;;;;;;;;5015733;28;20209;-68
2024/04/05 08:51:17;;;;;;;1.30;0.82;;;;;;;;;;5015542;28;20186;-68
2024/04/05 08:53:44;;;;;;;1.15;0.85;;;;;;;;;;5015383;28;20222;-68
2024/04/05 08:56:11;;;;;;;1.30;1.08;;;;;;;;;;5015373;28;20181;-68
2024/04/05 08:58:37;;;;;;;3.42;1.30;;;;;;;;;;5015032;28;20232;-68
2024/04/05 09:01:04;;;;;;;1.10;1.00;;;;;;;;;;5014980;28;20733;-68
2024/04/05 09:03:30;;;;;;;2.47;1.20;;;;;;;;;;5015140;28;20193;-68
2024/04/05 09:05:56;;;;;;;2.22;1.13;;;;;;;;;;5015035;28;20174;-68
2024/04/05 09:08:22;;;;;;;1.88;1.20;;;;;;;;;;5028753;22;20352;-77
2024/04/05 09:10:51;;;;;;;2.00;1.20;;;;;;;;;;5015855;28;20196;-77
2024/04/05 09:13:17;;;;;;;1.50;1.15;;;;;;;;;;5015317;28;20277;-77
2024/04/05 09:15:44;;;;;;;2.58;1.35;;;;;;;;;;5015137;28;20177;-77
2024/04/05 09:18:10;;;;;;;3.30;2.20;;;;;;;;;;5015475;28;20722;-77
2024/04/05 09:20:36;;;;;;;1.50;1.00;;;;;;;;;;4997921;28;20293;-77
2024/04/05 09:23:03;;;;;;;3.97;1.10;;;;;;;;;;5015031;28;20627;-77
2024/04/05 09:25:32;;;;;;;1.00;0.90;;;;;;;;;;5015630;28;20185;-78
2024/04/05 09:28:04;;;;;;;2.92;1.08;;;;;;;;;;5015545;28;20173;-77
2024/04/05 09:30:30;;;;;;;1.33;0.95;;;;;;;;;;5015654;28;20182;-77
2024/04/05 09:32:57;;;;;;;2.20;1.08;;;;;;;;;;5014736;28;20202;-77
2024/04/05 09:35:26;;;;;;;4.70;1.13;;;;;;;;;;5015461;28;20182;-77
2024/04/05 09:37:52;;;;;;;1.20;1.10;;;;;;;;;;4997548;28;20618;-78
2024/04/05 09:40:18;;;;;;;3.53;1.50;;;;;;;;;;5014834;28;20194;-76
2024/04/05 09:42:44;;;;;;;1.73;1.00;;;;;;;;;;5014844;28;20178;-77
2024/04/05 09:45:12;;;;;;;2.13;1.00;;;;;;;;;;5014874;28;20202;-77
2024/04/05 09:47:39;;;;;;;2.03;1.25;;;;;;;;;;5014505;28;20204;-77
2024/04/05 09:50:08;;;;;;;2.05;0.90;;;;;;;;;;5014498;28;20178;-77
2024/04/05 09:52:40;;;;;;;2.00;1.05;;;;;;;;;;5014752;28;20181;-77
2024/04/05 09:55:09;;;;;;;1.23;1.10;;;;;;;;;;4994152;28;20712;-77
2024/04/05 09:57:36;;;;;;;3.33;2.47;;;;;;;;;;5014934;28;20181;-77
2024/04/05 10:00:14;;;;;;;2.67;1.45;;;;;;;;;;5014719;28;20213;-77
2024/04/05 10:02:40;;;;;;;1.17;0.88;;;;;;;;;;5014929;28;20549;-77
2024/04/05 10:05:07;;;;;;;3.10;1.17;;;;;;;;;;5014323;28;20305;-76
2024/04/05 10:07:33;;;;;;;0.98;0.82;;;;;;;;;;5013972;28;20197;-76
2024/04/05 10:10:08;;;;;;;2.47;1.08;;;;;;;;;;5014780;28;20196;-77
2024/04/05 10:12:34;;;;;;;2.00;0.90;;;;;;;;;;5014300;28;20181;-77
2024/04/05 10:15:00;;;;;;;1.13;1.00;;;;;;;;;;5018659;28;20702;-80
2024/04/05 10:17:29;;;;;;;1.63;1.00;;;;;;;;;;5019345;28;20182;-78
2024/04/05 10:20:05;;;;;;;3.60;1.08;;;;;;;;;;5020645;28;20233;-78
2024/04/05 10:22:32;;;;;;;1.58;1.08;;;;;;;;;;5020880;28;20169;-77
2024/04/05 10:24:58;;;;;;;1.65;1.00;;;;;;;;;;5021851;28;20199;-79
2024/04/05 10:27:25;;;;;;;4.30;1.10;;;;;;;;;;5020119;28;20178;-79
2024/04/05 10:30:06;;;;;;;0.85;0.80;;;;;;;;;;5018285;28;20664;-75
2024/04/05 10:32:33;;;;;;;2.30;1.00;;;;;;;;;;5013917;28;20520;-75
2024/04/05 10:35:09;;;;;;;2.05;1.00;;;;;;;;;;5013727;28;20269;-75
2024/04/05 10:37:41;;;;;;;1.55;0.80;;;;;;;;;;5013822;28;20178;-76
2024/04/05 10:40:12;;;;;;;1.05;0.90;;;;;;;;;;4980310;28;20217;-75
2024/04/05 10:42:43;;;;;;;0.75;0.75;;;;;;;;;;5014009;28;20556;-76
2024/04/05 10:45:09;;;;;;;1.10;0.73;;;;;;;;;;5013806;28;20724;-76
2024/04/05 10:47:35;;;;;;;0.95;0.90;;;;;;;;;;5013801;28;20178;-76
2024/04/05 10:50:04;;;;;;;1.42;0.77;;;;;;;;;;5013559;28;20668;-76
2024/04/05 10:52:33;;;;;;;1.33;0.98;;;;;;;;;;5013557;28;20652;-76
2024/04/05 10:55:09;;;;;;;2.72;1.73;;;;;;;;;;4996239;28;20376;-77
2024/04/05 10:57:35;;;;;;;1.10;1.00;;;;;;;;;;5013224;28;20228;-76
2024/04/05 11:00:26;;;;;;;1.23;0.88;;;;;;;;;;5017916;28;20202;-78
2024/04/05 11:02:52;;;;;;;0.95;0.80;;;;;;;;;;5014927;28;20580;-77
2024/04/05 11:05:20;;;;;;;0.70;0.70;;;;;;;;;;5013892;28;20611;-78
2024/04/05 11:07:57;;;;;;;1.20;0.90;;;;;;;;;;5013632;28;20213;-77
2024/04/05 11:10:23;;;;;;;7.05;2.90;;;;;;;;;;5013616;28;20201;-77
2024/04/05 11:12:49;;;;;;;8.38;2.80;;;;;;;;;;5014311;28;20185;-77
2024/04/05 11:15:22;;;;;;;1.60;1.00;;;;;;;;;;5015081;28;20189;-78
2024/04/05 11:18:03;;;;;;;1.60;0.77;;;;;;;;;;5018102;28;20545;-79
2024/04/05 11:20:31;;;;;;;0.70;0.70;;;;;;;;;;5018076;28;20197;-78
2024/04/05 11:23:01;;;;;;;0.80;0.80;;;;;;;;;;5017678;28;20601;-79
2024/04/05 11:25:27;;;;;;;1.40;0.80;;;;;;;;;;5018245;28;20174;-78
2024/04/05 11:27:53;;;;;;;12.40;5.20;;;;;;;;;;5017554;28;20224;-76
2024/04/05 11:30:20;;;;;;;1.35;1.00;;;;;;;;;;5013460;28;20209;-76
2024/04/05 11:32:46;;;;;;;0.65;0.65;;;;;;;;;;5013477;28;20549;-76
2024/04/05 11:35:12;;;;;;;5.35;1.95;;;;;;;;;;5013116;28;20236;-76
2024/04/05 11:37:45;;;;;;;2.08;0.90;;;;;;;;;;5013413;28;20194;-76
2024/04/05 11:40:15;;;;;;;3.70;2.13;;;;;;;;;;5013376;28;20209;-76
2024/04/05 11:42:41;;;;;;;10.00;3.85;;;;;;;;;;5013049;28;20327;-75
2024/04/05 11:45:09;;;;;;;10.80;3.78;;;;;;;;;;5013294;28;20279;-75
2024/04/05 11:47:36;;;;;;;1.85;0.70;;;;;;;;;;5013824;28;20223;-76
2024/04/05 11:50:03;;;;;;;1.73;0.75;;;;;;;;;;4995792;28;20281;-76
2024/04/05 11:52:30;;;;;;;2.15;0.85;;;;;;;;;;5014562;28;20189;-79
2024/04/05 11:54:57;;;;;;;2.08;1.13;;;;;;;;;;5019196;28;20222;-79
2024/04/05 11:57:23;;;;;;;3.88;1.50;;;;;;;;;;5018724;28;20275;-78
2024/04/05 11:59:49;;;;;;;4.50;1.88;;;;;;;;;;5021324;28;20216;-78
2024/04/05 12:02:15;;;;;;;7.28;3.03;;;;;;;;;;5023285;28;20202;-78
2024/04/05 12:04:41;;;;;;;15.55;7.20;;;;;;;;;;5022102;28;20281;-78
2024/04/05 12:07:09;;;;;;;6.40;2.67;;;;;;;;;;5019360;28;20228;-78
2024/04/05 12:09:36;;;;;;;2.80;1.40;;;;;;;;;;5019351;28;20178;-78
2024/04/05 12:12:02;;;;;;;0.80;0.80;;;;;;;;;;5025237;28;20177;-78
2024/04/05 12:14:28;;;;;;;2.13;1.15;;;;;;;;;;5023648;28;20276;-78
2024/04/05 12:16:54;;;;;;;3.30;0.90;;;;;;;;;;5020438;28;20182;-80
2024/04/05 12:19:20;;;;;;;2.15;1.08;;;;;;;;;;5019572;28;20170;-80
2024/04/05 12:21:46;;;;;;;1.42;0.90;;;;;;;;;;5019041;28;20208;-79
2024/04/05 12:24:12;;;;;;;0.80;0.50;;;;;;;;;;5020319;28;20206;-81
2024/04/05 12:26:38;;;;;;;1.02;0.70;;;;;;;;;;5020656;28;20235;-79
2024/04/05 12:29:05;;;;;;;1.42;0.77;;;;;;;;;;5022005;28;20240;-78
2024/04/05 12:31:31;;;;;;;2.08;0.90;;;;;;;;;;5021960;28;20216;-79
2024/04/05 12:33:57;;;;;;;0.65;0.65;;;;;;;;;;5021226;28;20507;-79
2024/04/05 12:36:23;;;;;;;0.80;0.75;;;;;;;;;;5021522;28;20179;-79
2024/04/05 12:38:56;;;;;;;0.60;0.60;;;;;;;;;;5020278;28;20186;-79
2024/04/05 12:41:23;;;;;;;3.42;2.30;;;;;;;;;;5020562;28;20563;-80
2024/04/05 12:43:49;;;;;;;1.15;0.80;;;;;;;;;;5019859;28;20264;-80
2024/04/05 12:46:15;;;;;;;0.70;0.70;;;;;;;;;;5020173;28;20186;-80
2024/04/05 12:48:42;;;;;;;0.95;0.68;;;;;;;;;;5020255;28;20706;-79
2024/04/05 12:51:17;;;;;;;1.33;0.60;;;;;;;;;;5002545;28;20240;-79
2024/04/05 12:53:43;;;;;;;1.42;0.70;;;;;;;;;;5020066;28;20197;-80
2024/04/05 12:56:09;;;;;;;0.70;0.70;;;;;;;;;;5021357;28;20279;-81
2024/04/05 12:58:37;;;;;;;4.18;0.63;;;;;;;;;;5003705;28;20261;-79
2024/04/05 13:01:04;;;;;;;2.90;0.90;;;;;;;;;;5003357;28;20194;-81
2024/04/05 13:03:34;;;;;;;0.60;0.60;;;;;;;;;;5025461;22;20233;-70
2024/04/05 13:09:03;;;;;;;0.60;0.60;;;;;;;;;;5015264;28;20232;-70
2024/04/05 13:14:32;;;;;;;1.90;0.85;;;;;;;;;;5015364;28;20273;-70
2024/04/05 13:16:58;;;;;;;1.05;0.75;;;;;;;;;;5031704;22;20267;-80
2024/04/05 13:19:24;;;;;;;1.38;0.73;;;;;;;;;;5020766;28;20758;-80
2024/04/05 13:21:50;;;;;;;0.60;0.60;;;;;;;;;;5020950;28;20186;-79
2024/04/05 13:24:16;;;;;;;0.43;0.43;;;;;;;;;;5021232;28;20268;-80
2024/04/05 13:26:43;;;;;;;0.68;0.60;;;;;;;;;;5020854;28;20691;-81
2024/04/05 13:29:09;;;;;;;0.55;0.55;;;;;;;;;;5019936;28;20555;-81
2024/04/05 13:31:35;;;;;;;2.75;0.90;;;;;;;;;;5020031;28;20244;-81
2024/04/05 13:34:01;;;;;;;2.25;1.90;;;;;;;;;;5020489;28;20197;-81
2024/04/05 13:36:27;;;;;;;1.42;1.27;;;;;;;;;;5003079;28;20241;-81
2024/04/05 13:38:53;;;;;;;3.10;1.60;;;;;;;;;;5002565;28;20666;-80
2024/04/05 13:41:19;;;;;;;0.80;0.80;;;;;;;;;;5020491;28;20186;-80
2024/04/05 13:43:48;;;;;;;2.85;2.58;;;;;;;;;;5020165;28;20202;-79
2024/04/05 13:46:18;;;;;;;2.15;1.20;;;;;;;;;;5001985;28;20208;-80
2024/04/05 13:48:45;;;;;;;2.13;1.10;;;;;;;;;;5019819;28;20174;-80
2024/04/05 13:51:14;;;;;;;1.23;1.00;;;;;;;;;;5020565;28;20206;-81
2024/04/05 13:53:40;;;;;;;1.63;0.90;;;;;;;;;;5001905;28;20202;-81
2024/04/05 13:56:07;;;;;;;1.30;1.10;;;;;;;;;;5019590;28;20193;-80
2024/04/05 13:58:34;;;;;;;1.40;0.70;;;;;;;;;;5019848;28;20173;-80
2024/04/05 14:01:00;;;;;;;3.97;1.00;;;;;;;;;;5019540;28;20201;-80
2024/04/05 14:03:26;;;;;;;0.73;0.73;;;;;;;;;;5018935;28;20197;-80
2024/04/05 14:05:52;;;;;;;0.88;0.63;;;;;;;;;;5019098;28;20233;-80
2024/04/05 14:08:19;;;;;;;1.00;0.90;;;;;;;;;;5019836;28;20196;-80
2024/04/05 14:10:54;;;;;;;1.20;0.80;;;;;;;;;;5020305;28;20205;-80
2024/04/05 14:13:20;;;;;;;1.88;0.93;;;;;;;;;;5018013;28;20205;-80
2024/04/05 14:15:56;;;;;;;1.90;0.77;;;;;;;;;;5019177;28;20186;-79
2024/04/05 14:18:22;;;;;;;1.75;0.90;;;;;;;;;;5019490;28;20675;-80
2024/04/05 14:20:48;;;;;;;1.13;0.80;;;;;;;;;;5020235;28;20174;-81
2024/04/05 14:23:14;;;;;;;1.13;0.80;;;;;;;;;;5020017;28;20192;-80
2024/04/05 14:25:44;;;;;;;0.63;0.63;;;;;;;;;;5020687;28;20229;-80
2024/04/05 14:28:10;;;;;;;1.33;0.80;;;;;;;;;;5019585;28;20663;-80
2024/04/05 14:30:37;;;;;;;0.75;0.75;;;;;;;;;;5018465;28;20272;-79
2024/04/05 14:33:03;;;;;;;1.42;0.65;;;;;;;;;;5017915;28;20189;-80
2024/04/05 14:35:29;;;;;;;2.88;0.90;;;;;;;;;;5019546;28;20744;-81
2024/04/05 14:37:55;;;;;;;0.80;0.80;;;;;;;;;;5019784;28;20201;-80
2024/04/05 14:40:21;;;;;;;1.05;0.98;;;;;;;;;;5001297;28;20261;-80
2024/04/05 14:42:47;;;;;;;1.00;0.93;;;;;;;;;;5021046;28;20185;-80
2024/04/05 14:45:13;;;;;;;2.13;1.02;;;;;;;;;;5020516;28;20208;-80
2024/04/05 14:47:40;;;;;;;1.52;1.10;;;;;;;;;;5022268;28;20181;-80